Douglas, GA (31535)

6:07 PM EDT on July 29, 2014 (GMT -0400)
Douglas Golf Club Area (KGADOUGL20) Elev 224 ft | 31.52 °N, 82.84 °W | Change Station

Current weather conditions updated 10 seconds ago

Clear
Clear
88.3 °F
Feels Like 88 °F
N
0.9
Wind Variable Wind from West
Gusts 2.0 mph

Tomorrow is forecast to be nearly the same temperature as today.

Today
High -- | Low -- °F
--% Chance of Precip.
Yesterday
High -- | Low -- °F
Precip. -- in
6:45 AM 8:29 PM
Waxing Crescent, 8% visible
Pressure 29.93 in
Visibility 10.0 miles
Clouds Clear
Heat Index 88 °F
Dew Point 60 °F
Humidity 39%
Rainfall 0.00 in
Snow Depth Not available.
UV 4 out of 12
Pollen 6.00 out of 12
Air Quality Not available.
Flu Activity Not available.
METAR KDQH 292135Z AUTO 30009G16KT 10SM CLR 33/13 A2993 RMK AO2

More Conditions Fewer Conditions

Pressure 29.93 in
Visibility 10.0 miles
Clouds Clear
Heat Index 88 °F
Dew Point 60 °F
Humidity 39%
Rainfall 0.00 in
Snow Depth Not available.
UV 4 out of 12
Pollen 6.00 out of 12
Air Quality Not available.
Flu Activity Not available.
METAR KDQH 292135Z AUTO 30009G16KT 10SM CLR 33/13 A2993 RMK AO2

More Conditions Fewer Conditions

10-Day Weather Forecast

Almanac

Astronomy

Jul. 29, 2014 Rise Set
Actual Time 6:45 AM EDT 8:29 PM EDT
Civil Twilight 6:19 AM EDT 8:56 PM EDT
Nautical Twilight 5:47 AM EDT 9:28 PM EDT
Astronomical Twilight 5:13 AM EDT 10:01 PM EDT
Moon 9:08 AM EDT 9:56 PM EDT
Length of Visible Light 14h 37m
Length of Day
13h 43m
Tomorrow will be 1m 23s shorter.
Waxing Crescent, 8% of the Moon is Illuminated
Today
Waxing Crescent
Aug 3
First Quarter
Aug 10
Full
Aug 17
Last Quarter
Aug 25
New

Today's Extremes

State Highs State Lows

Community

WunderPhotos

Upload Photos

1,738,878 photos uploaded!

Nearby

Snow Depth

Station Depth Elevation
No new snow has been reported.

Earthquake Activity

City Distance Mag. Time & Date
No recent earthquake activity has been reported nearby.
Minimum magnitude displayed is 2.5.

Coastal Water Temperatures

Place Temperature
No Stations Reporting

Nearby Weather Stations

Station Location Temp. Heat Index Dew Point Humidity Wind Precip. Elev Updated Type
Douglas Golf Club Area, Douglas, GA 88.3 °F 88 °F 60 °F 39% West  at  0.9 mph 0.00 in / hr 224 ft 6:07 PM EDT Rapid Fire
Baymeadows Lake, Douglas, GA 83.5 °F 86 °F 66 °F 55% WNW  at  10.3 mph 0.00 in / hr 256 ft 6:06 PM EDT Rapid Fire
Courthouse, Pearson, GA 93.2 °F 93 °F 59 °F 32% SW  at  2.5 mph 0.00 in / hr 226 ft 6:07 PM EDT Rapid Fire
Jacksonville, GA 88.2 °F 89 °F 63 °F 43% WNW  at  4.0 mph 0.00 in / hr 171 ft 5:59 PM EDT Normal

Show More Stations Show Fewer Stations